Simon Davis

Recruteur en chef - Oxford United
3 Févr 2028
Jeudi
Processus

Personnalité

Adaptabilité (3) Ambition (16) Controverse (10) Loyauté (1) Pression (9) Professionnalisme (5) Sportivité (2) Tempérament (16)

Profil

Style d'entraînement Démocratique
Diplôme National B
Détermination 4
Gestion des joueurs 12
Motivation 5
Discipline 9
Satisfaction professionnelle
100%
Fatigue
0%
Rôle Recruteur en chef
Salaire 18.6K p/s
Contrat 14.03.2028

Performance

Comportement Bon
Efficacité de l'entraînement
49%
Développement des joueurs
40%
Prévention des blessures
35%
Mise en place tactique
50%

Événements récents

Négociation de contrat entamée maintenant
A participé à une réunion de recrutement maintenant
A recommandé une cible de transfert maintenant
A recommandé une cible de transfert maintenant
Négociation de contrat entamée 7j
Négociation de contrat entamée 7j
Négociation de contrat entamée 7j
Négociation de contrat entamée 7j

Suivi en cours

104
Joueur Club Statut Capacité Confiance Observé Dernière observation Dernier vote
Christian Walton Ipswich Town Perdu 143 / 140 40% 1 06.01.2028 -
Nicolas Schmid Portsmouth Perdu 134 / 131 40% 1 06.01.2028 -
Alex Bass Peterborough United Perdu 128 / 112 40% 1 06.01.2028 -
Ethan Wheatley Manchester United Perdu 109 / 121 69% 1 01.01.2028 Approuver
Gopolang Taunyane Ajax Cape Town Actif 101 / 113 40% 1 24.08.2027 -
Kwaku Agyabeng Sporting Kansas City Actif 97 / 96 40% 1 24.08.2027 -
Onuorah Onyedika Kun Khalifat Actif 69 / 76 40% 1 24.08.2027 -
Gady Beyuku Modena Actif 110 / 125 40% 1 16.08.2027 -
Vladislav Cherny Accrington Stanley Actif 105 / 104 69% 1 09.08.2027 Approuver
Pau Casadesús Granada Actif 116 / 115 40% 3 08.08.2027 -
Josh Neufville Bradford City Actif 111 / 113 40% 1 08.08.2027 -
Fabián Correa Barranquilla Actif 80 / 98 40% 2 06.08.2027 -
Eric Klein FC Cincinnati Actif 95 / 107 40% 1 06.08.2027 -
Albie Morgan Blackpool Actif 108 / 110 40% 3 01.08.2027 -
Ethan Bristow Tranmere Rovers Actif 96 / 97 40% 2 31.07.2027 -
Nicolás Paz San Martín SJ Actif 125 / 129 40% 2 31.07.2027 -
Ikouwem Utin Shooting Stars Actif 85 / 78 40% 2 30.07.2027 -
Romano Floriani Mussolini Avellino Actif 122 / 130 40% 2 29.07.2027 -
Christopher Richards Katsina United Actif 91 / 104 40% 2 26.07.2027 -
Álex Lebarbier Real Sociedad Actif 106 / 107 40% 1 25.07.2027 -
Yasin Özcan Aston Villa Actif 105 / 119 40% 1 25.07.2027 -
Jack MacKenzie Plymouth Argyle Actif 112 / 113 40% 2 19.07.2027 -
Siphesihle Sithole Inter Allies Actif 89 / 98 40% 1 19.07.2027 -
Pedro Manoel Tammeka Actif 90 / 92 40% 1 19.07.2027 -
Alfie Chang Walsall Actif 104 / 102 40% 2 18.07.2027 -
George McEachran Doncaster Rovers Actif 109 / 117 40% 4 12.07.2027 -
Federico Gattoni Ascoli Actif 138 / 132 40% 2 12.07.2027 -
Gustavo Sliema Wanderers Actif 101 / 92 40% 2 11.07.2027 -
Jamie Robson Oldham Athletic Actif 101 / 106 40% 1 10.07.2027 -
Charlie Barker Crawley Town Actif 104 / 105 40% 4 08.07.2027 -
Ibrahim Sabiu Bendel Insurance Actif 81 / 87 40% 1 08.07.2027 -
Haji Mnoga Salford City Actif 106 / 106 40% 1 06.07.2027 -
Kevin Palacios Santos Laguna Actif 109 / 112 40% 1 01.07.2027 -
Danny Collinge Barnet Actif 100 / 110 40% 2 30.06.2027 -
Juan David Obando Dinamo Barnaul Actif 96 / 88 40% 2 27.06.2027 -
Nikola Tavares Barnet Actif 110 / 104 40% 1 27.06.2027 -
Pedro Borges Exeter City Actif 89 / 99 40% 1 27.06.2027 -
Nupe Godstime Bayelsa United Actif 94 / 88 40% 1 27.06.2027 -
Kyle Jurgens Maritzburg United Actif 120 / 107 40% 4 24.06.2027 -
Steve Seddon AFC Wimbledon Actif 113 / 109 40% 2 24.06.2027 -
Dan Happe AFC Wimbledon Actif 109 / 99 40% 3 21.06.2027 -
Josh Honohan Lincoln City Actif 105 / 107 40% 1 16.06.2027 -
Hassan Beja AFC Leopards Actif 75 / 77 40% 1 16.06.2027 -
Mads Abrahamsen Saturn Actif 90 / 93 40% 1 16.06.2027 -
Elie N'Gatta Sochaux Actif 88 / 105 40% 1 16.06.2027 -
Alan Coria Villarreal Actif 109 / 118 40% 1 15.06.2027 -
Paulo Cardoso Sporting CP Actif 96 / 98 40% 1 03.06.2027 -
Brooklyn Poggenpoel Maritzburg United Actif 107 / 108 40% 4 31.01.2027 -
Luther Lorch Free State Stars Actif 134 / 108 40% 1 30.01.2027 -
Dean Tau Platinum Stars Actif 84 / 94 40% 1 29.01.2027 -
Bongani Mothiba Free State Stars Actif 113 / 116 40% 2 27.01.2027 -
Mpho Mathebula Bloemfontein Celtic Actif 108 / 89 40% 1 27.01.2027 -
Ryan Wintle Milton Keynes Dons Actif 117 / 110 40% 2 25.01.2027 -
Bali Mumba Huddersfield Town Actif 120 / 125 40% 1 25.01.2027 -
Lander Astiazarán Real Sociedad Actif 99 / 110 40% 1 20.01.2027 -
Martim Cunha Porto Actif 94 / 107 40% 1 20.01.2027 -
Kyle John Port Vale Actif 107 / 108 40% 2 19.01.2027 -
Jay McGrath Doncaster Rovers Actif 101 / 106 40% 2 19.01.2027 -
Rushwin Dortley Kaizer Chiefs Actif 125 / 105 40% 2 16.01.2027 -
Ignacio Perruzzi San Lorenzo Actif 117 / 131 40% 2 15.01.2027 -
Goodman Mosele Chippa United Actif 120 / 110 40% 1 15.01.2027 -
Denys Smetana Inhulets Actif 91 / 110 40% 1 15.01.2027 -
Bradley Cross Kaizer Chiefs Actif 94 / 120 40% 1 11.01.2027 -
Ryan Trevitt AFC Wimbledon Actif 117 / 114 40% 1 10.01.2027 -
Kevin Horváth Paksi Actif 86 / 103 40% 1 10.01.2027 -
Noel Buck San Jose Earthquakes Actif 113 / 125 40% 1 10.01.2027 -
Morgan Kekana Free State Stars Actif 104 / 94 40% 1 09.01.2027 -
Emam Ashour Al Ahly Actif 151 / 148 40% 1 05.01.2027 -
Fezile Gcaba Maritzburg United Actif 112 / 110 40% 1 05.01.2027 -
Happy Mashiane Free State Stars Actif 96 / 108 40% 1 04.01.2027 -
Morgan Erasmus Ajax Cape Town Actif 103 / 116 40% 1 03.01.2027 -
Archie Collins Peterborough United Actif 118 / 122 40% 1 02.01.2027 -
David Ayala Inter Miami CF Actif 122 / 118 40% 1 02.01.2027 -
Mbekezeli Mbokazi Chicago Fire Actif 116 / 118 40% 3 29.08.2026 -
Marco Oroná Antofagasta Actif 88 / 95 40% 1 29.08.2026 -
Kaick FC Dallas Actif 93 / 103 40% 1 29.08.2026 -
Edwin Asamoah Berekum Chelsea Actif 74 / 76 40% 1 28.08.2026 -
Nikita Stoinov Dinamo Bucharest Actif 127 / 137 40% 2 27.08.2026 -
Tyler Fredricson Leganés Actif 107 / 110 40% 1 27.08.2026 -
Elías Báez Atlanta United FC Actif 121 / 127 40% 2 26.08.2026 -
Santiago Fernández Talleres Actif 116 / 117 40% 1 26.08.2026 -
Aiden Hezarkhani Real Salt Lake Actif 87 / 87 40% 1 22.08.2026 -
Mauricio Amaro Atlanta United FC Actif 119 / 134 40% 2 21.08.2026 -
Suleiman Idris Kano Pillars Actif 80 / 86 40% 1 20.08.2026 -
Lucas Noubi Deportivo La Coruña Actif 108 / 107 40% 1 20.08.2026 -
Juan Cruz Cortazzo Gimnasia La Plata Actif 105 / 110 40% 1 18.08.2026 -
Morrison Agyemang Charlotte Football Club Actif 111 / 115 40% 2 16.08.2026 -
Frankie Westfield Philadelphia Union Actif 106 / 103 40% 1 14.08.2026 -
Marvelous Freedom Ikorodu City Actif 88 / 108 40% 1 14.08.2026 -
Chris Applewhite Nashville SC Actif 83 / 92 40% 1 13.08.2026 -
Philippe Ndinga Philadelphia Union Actif 108 / 124 40% 1 13.08.2026 -
Cielo Tschantret Sporting Kansas City Actif 86 / 91 40% 1 10.08.2026 -
Clinton Jephta Niger Tornadoes Actif 74 / 85 40% 1 09.08.2026 -
Reed Baker-Whiting Nashville SC Actif 106 / 108 40% 1 09.08.2026 -
Emmanuel Mathias Ikorodu City Actif 81 / 87 40% 1 09.08.2026 -
Brian Romero Charlotte Football Club Actif 79 / 99 40% 1 06.08.2026 -
Darren Yapi Colorado Rapids Actif 96 / 116 40% 1 06.08.2026 -
Lazar Stefanovic Toronto FC Actif 95 / 114 40% 1 05.08.2026 -
David Vazquez San Diego Football Club Actif 100 / 107 40% 1 05.08.2026 -
Yahaya Ibrahim Kwara United Actif 93 / 79 40% 1 05.08.2026 -
Henadii Synchuk CF Montreal Actif 91 / 103 40% 2 04.08.2026 -
Sergio Oregel Chicago Fire Actif 109 / 116 40% 1 04.08.2026 -
Emmanuel Akpan Bendel Insurance Actif 91 / 78 40% 1 03.08.2026 -
Drew Baiera New York City Actif 96 / 90 40% 1 01.08.2026 -